sensor_id;sensor_type;location;lat;lon;timestamp;pressure;altitude;pressure_sealevel;temperature;humidity
4981;BME280;2507;50.392;7.482;2023-07-24T00:00:35;99874.25;;;20.85;72.30
4981;BME280;2507;50.392;7.482;2023-07-24T00:03:01;99879.16;;;20.82;72.16
4981;BME280;2507;50.392;7.482;2023-07-24T00:05:27;99875.03;;;20.79;72.08
4981;BME280;2507;50.392;7.482;2023-07-24T00:07:52;99880.13;;;20.74;71.97
4981;BME280;2507;50.392;7.482;2023-07-24T00:10:17;99877.81;;;20.71;72.32
4981;BME280;2507;50.392;7.482;2023-07-24T00:12:42;99881.19;;;20.59;72.69
4981;BME280;2507;50.392;7.482;2023-07-24T00:15:08;99879.16;;;20.61;73.14
4981;BME280;2507;50.392;7.482;2023-07-24T00:17:33;99876.81;;;20.72;72.58
4981;BME280;2507;50.392;7.482;2023-07-24T00:19:59;99873.00;;;20.81;71.79
4981;BME280;2507;50.392;7.482;2023-07-24T00:22:24;99867.84;;;20.80;71.79
4981;BME280;2507;50.392;7.482;2023-07-24T00:24:49;99868.09;;;20.64;72.81
4981;BME280;2507;50.392;7.482;2023-07-24T00:27:14;99869.97;;;20.63;73.12
4981;BME280;2507;50.392;7.482;2023-07-24T00:29:40;99864.91;;;20.75;72.96
4981;BME280;2507;50.392;7.482;2023-07-24T00:32:05;99860.34;;;20.90;72.41
4981;BME280;2507;50.392;7.482;2023-07-24T00:34:31;99864.72;;;20.97;72.25
4981;BME280;2507;50.392;7.482;2023-07-24T00:36:56;99865.47;;;20.91;72.78
4981;BME280;2507;50.392;7.482;2023-07-24T00:39:21;99859.94;;;20.93;73.13
4981;BME280;2507;50.392;7.482;2023-07-24T00:41:46;99859.38;;;20.97;73.22
4981;BME280;2507;50.392;7.482;2023-07-24T00:44:12;99859.84;;;21.01;73.10
4981;BME280;2507;50.392;7.482;2023-07-24T00:46:37;99856.41;;;21.07;72.68
4981;BME280;2507;50.392;7.482;2023-07-24T00:49:04;99862.53;;;21.07;72.53
4981;BME280;2507;50.392;7.482;2023-07-24T00:51:30;99865.53;;;21.19;72.46
4981;BME280;2507;50.392;7.482;2023-07-24T00:54:00;99848.88;;;21.17;72.63
4981;BME280;2507;50.392;7.482;2023-07-24T00:56:26;99846.00;;;21.18;72.21
4981;BME280;2507;50.392;7.482;2023-07-24T00:58:54;99856.03;;;21.16;72.46
4981;BME280;2507;50.392;7.482;2023-07-24T01:01:20;99846.63;;;21.20;72.40
4981;BME280;2507;50.392;7.482;2023-07-24T01:03:46;99839.91;;;21.31;71.78
4981;BME280;2507;50.392;7.482;2023-07-24T01:06:11;99840.19;;;21.36;72.29
4981;BME280;2507;50.392;7.482;2023-07-24T01:08:37;99835.31;;;21.18;73.17
4981;BME280;2507;50.392;7.482;2023-07-24T01:11:09;99834.63;;;21.03;74.52
4981;BME280;2507;50.392;7.482;2023-07-24T01:13:41;99825.69;;;20.96;75.10
4981;BME280;2507;50.392;7.482;2023-07-24T01:16:09;99823.13;;;21.03;75.05
4981;BME280;2507;50.392;7.482;2023-07-24T01:18:38;99816.75;;;21.04;74.98
4981;BME280;2507;50.392;7.482;2023-07-24T01:21:06;99812.91;;;21.13;74.63
4981;BME280;2507;50.392;7.482;2023-07-24T01:23:55;99807.41;;;21.14;74.15
4981;BME280;2507;50.392;7.482;2023-07-24T01:26:24;99807.78;;;21.11;74.55
4981;BME280;2507;50.392;7.482;2023-07-24T01:28:50;99794.84;;;21.08;74.64
4981;BME280;2507;50.392;7.482;2023-07-24T01:31:15;99785.34;;;20.99;75.40
4981;BME280;2507;50.392;7.482;2023-07-24T01:33:42;99778.19;;;21.06;75.36
4981;BME280;2507;50.392;7.482;2023-07-24T01:36:08;99793.03;;;21.15;74.89
4981;BME280;2507;50.392;7.482;2023-07-24T01:38:35;99787.78;;;21.01;75.67
4981;BME280;2507;50.392;7.482;2023-07-24T01:41:01;99781.91;;;21.12;75.20
4981;BME280;2507;50.392;7.482;2023-07-24T01:43:26;99787.47;;;21.17;74.86
4981;BME280;2507;50.392;7.482;2023-07-24T01:45:52;99794.66;;;21.16;74.66
4981;BME280;2507;50.392;7.482;2023-07-24T01:48:18;99788.88;;;21.13;75.09
4981;BME280;2507;50.392;7.482;2023-07-24T01:50:43;99795.47;;;21.10;75.13
4981;BME280;2507;50.392;7.482;2023-07-24T01:53:08;99799.97;;;21.10;75.06
4981;BME280;2507;50.392;7.482;2023-07-24T01:55:34;99802.84;;;21.08;75.27
4981;BME280;2507;50.392;7.482;2023-07-24T01:57:59;99792.88;;;20.96;75.94
4981;BME280;2507;50.392;7.482;2023-07-24T02:00:25;99804.28;;;20.83;77.13
4981;BME280;2507;50.392;7.482;2023-07-24T02:02:50;99801.56;;;21.04;76.31
4981;BME280;2507;50.392;7.482;2023-07-24T02:05:15;99794.47;;;20.90;76.26
4981;BME280;2507;50.392;7.482;2023-07-24T02:07:40;99793.13;;;21.01;75.36
4981;BME280;2507;50.392;7.482;2023-07-24T02:10:06;99794.50;;;20.97;76.15
4981;BME280;2507;50.392;7.482;2023-07-24T02:12:32;99804.25;;;21.04;75.83
4981;BME280;2507;50.392;7.482;2023-07-24T02:14:57;99791.09;;;21.03;75.87
4981;BME280;2507;50.392;7.482;2023-07-24T02:17:23;99788.00;;;20.99;76.27
4981;BME280;2507;50.392;7.482;2023-07-24T02:19:48;99785.97;;;21.01;76.25
4981;BME280;2507;50.392;7.482;2023-07-24T02:22:15;99793.16;;;21.07;75.98
4981;BME280;2507;50.392;7.482;2023-07-24T02:24:40;99797.50;;;21.08;75.45
4981;BME280;2507;50.392;7.482;2023-07-24T02:27:05;99803.47;;;21.10;75.57
4981;BME280;2507;50.392;7.482;2023-07-24T02:29:31;99795.91;;;21.14;75.17
4981;BME280;2507;50.392;7.482;2023-07-24T02:31:57;99782.03;;;21.31;74.02
4981;BME280;2507;50.392;7.482;2023-07-24T02:34:22;99790.81;;;21.25;74.01
4981;BME280;2507;50.392;7.482;2023-07-24T02:36:51;99791.34;;;21.08;74.82
4981;BME280;2507;50.392;7.482;2023-07-24T02:39:17;99785.19;;;20.86;76.52
4981;BME280;2507;50.392;7.482;2023-07-24T02:41:42;99779.31;;;20.91;75.40
4981;BME280;2507;50.392;7.482;2023-07-24T02:44:07;99776.88;;;20.68;76.57
4981;BME280;2507;50.392;7.482;2023-07-24T02:46:33;99772.56;;;20.67;77.62
4981;BME280;2507;50.392;7.482;2023-07-24T02:48:58;99761.50;;;20.70;77.08
4981;BME280;2507;50.392;7.482;2023-07-24T02:51:23;99761.16;;;20.80;76.48
4981;BME280;2507;50.392;7.482;2023-07-24T02:53:49;99750.56;;;20.93;76.19
4981;BME280;2507;50.392;7.482;2023-07-24T02:56:14;99736.78;;;20.89;76.36
4981;BME280;2507;50.392;7.482;2023-07-24T02:58:39;99723.38;;;20.76;77.86
4981;BME280;2507;50.392;7.482;2023-07-24T03:01:06;99725.66;;;20.79;77.50
4981;BME280;2507;50.392;7.482;2023-07-24T03:03:33;99721.59;;;20.83;77.40
4981;BME280;2507;50.392;7.482;2023-07-24T03:05:58;99723.38;;;20.76;78.03
4981;BME280;2507;50.392;7.482;2023-07-24T03:08:24;99714.13;;;20.72;78.32
4981;BME280;2507;50.392;7.482;2023-07-24T03:10:49;99715.13;;;20.71;78.14
4981;BME280;2507;50.392;7.482;2023-07-24T03:13:14;99707.13;;;20.71;77.81
4981;BME280;2507;50.392;7.482;2023-07-24T03:15:39;99707.53;;;20.68;77.93
4981;BME280;2507;50.392;7.482;2023-07-24T03:18:05;99703.22;;;20.67;77.78
4981;BME280;2507;50.392;7.482;2023-07-24T03:20:30;99708.59;;;20.74;77.37
4981;BME280;2507;50.392;7.482;2023-07-24T03:22:55;99700.78;;;20.72;76.61
4981;BME280;2507;50.392;7.482;2023-07-24T03:25:21;99702.81;;;20.70;76.06
4981;BME280;2507;50.392;7.482;2023-07-24T03:27:46;99692.91;;;20.58;76.38
4981;BME280;2507;50.392;7.482;2023-07-24T03:30:11;99682.56;;;20.48;76.13
4981;BME280;2507;50.392;7.482;2023-07-24T03:32:37;99686.41;;;20.39;76.05
4981;BME280;2507;50.392;7.482;2023-07-24T03:35:04;99687.47;;;20.45;75.98
4981;BME280;2507;50.392;7.482;2023-07-24T03:37:30;99684.56;;;20.40;75.71
4981;BME280;2507;50.392;7.482;2023-07-24T03:39:55;99693.44;;;20.47;75.52
4981;BME280;2507;50.392;7.482;2023-07-24T03:42:28;99694.91;;;20.28;75.81
4981;BME280;2507;50.392;7.482;2023-07-24T03:44:54;99685.28;;;20.27;75.37
4981;BME280;2507;50.392;7.482;2023-07-24T03:47:20;99675.31;;;20.14;75.71
4981;BME280;2507;50.392;7.482;2023-07-24T03:49:45;99671.31;;;20.04;76.26
4981;BME280;2507;50.392;7.482;2023-07-24T03:52:10;99663.75;;;20.07;75.75
4981;BME280;2507;50.392;7.482;2023-07-24T03:54:35;99674.00;;;19.83;76.80
4981;BME280;2507;50.392;7.482;2023-07-24T03:57:01;99663.84;;;19.51;79.38
4981;BME280;2507;50.392;7.482;2023-07-24T03:59:26;99675.72;;;19.33;81.37
4981;BME280;2507;50.392;7.482;2023-07-24T04:01:51;99680.94;;;19.42;81.17
4981;BME280;2507;50.392;7.482;2023-07-24T04:04:16;99668.00;;;19.39;81.27
4981;BME280;2507;50.392;7.482;2023-07-24T04:06:42;99667.91;;;19.47;81.39
4981;BME280;2507;50.392;7.482;2023-07-24T04:09:07;99665.81;;;19.63;81.07
4981;BME280;2507;50.392;7.482;2023-07-24T04:11:32;99682.75;;;19.77;79.97
4981;BME280;2507;50.392;7.482;2023-07-24T04:13:58;99687.13;;;19.84;80.22
4981;BME280;2507;50.392;7.482;2023-07-24T04:16:23;99677.22;;;19.99;79.66
4981;BME280;2507;50.392;7.482;2023-07-24T04:18:48;99685.06;;;20.07;79.15
4981;BME280;2507;50.392;7.482;2023-07-24T04:21:13;99689.34;;;20.23;78.49
4981;BME280;2507;50.392;7.482;2023-07-24T04:23:39;99681.19;;;20.31;78.28
4981;BME280;2507;50.392;7.482;2023-07-24T04:26:04;99685.03;;;20.50;77.54
4981;BME280;2507;50.392;7.482;2023-07-24T04:28:29;99684.06;;;20.57;76.07
4981;BME280;2507;50.392;7.482;2023-07-24T04:30:54;99682.25;;;20.64;76.59
4981;BME280;2507;50.392;7.482;2023-07-24T04:33:20;99690.34;;;20.77;75.76
4981;BME280;2507;50.392;7.482;2023-07-24T04:35:48;99695.53;;;20.85;74.82
4981;BME280;2507;50.392;7.482;2023-07-24T04:38:14;99701.72;;;20.92;74.67
4981;BME280;2507;50.392;7.482;2023-07-24T04:40:39;99702.38;;;20.94;74.15
4981;BME280;2507;50.392;7.482;2023-07-24T04:43:04;99698.91;;;21.00;74.15
4981;BME280;2507;50.392;7.482;2023-07-24T04:45:29;99710.22;;;21.02;73.93
4981;BME280;2507;50.392;7.482;2023-07-24T04:47:55;99715.78;;;21.07;73.31
4981;BME280;2507;50.392;7.482;2023-07-24T04:50:20;99712.88;;;21.02;72.96
4981;BME280;2507;50.392;7.482;2023-07-24T04:52:45;99720.75;;;21.10;71.72
4981;BME280;2507;50.392;7.482;2023-07-24T04:55:10;99728.44;;;20.99;69.19
4981;BME280;2507;50.392;7.482;2023-07-24T04:57:36;99725.06;;;20.84;71.70
4981;BME280;2507;50.392;7.482;2023-07-24T05:00:01;99729.31;;;20.99;72.01
4981;BME280;2507;50.392;7.482;2023-07-24T05:02:26;99730.25;;;21.26;71.80
4981;BME280;2507;50.392;7.482;2023-07-24T05:04:51;99730.31;;;21.39;70.97
4981;BME280;2507;50.392;7.482;2023-07-24T05:07:17;99730.31;;;21.46;71.42
4981;BME280;2507;50.392;7.482;2023-07-24T05:09:42;99732.00;;;21.47;70.67
4981;BME280;2507;50.392;7.482;2023-07-24T05:12:08;99732.06;;;21.66;70.03
4981;BME280;2507;50.392;7.482;2023-07-24T05:14:33;99735.56;;;21.73;70.06
4981;BME280;2507;50.392;7.482;2023-07-24T05:16:58;99724.75;;;21.88;68.93
4981;BME280;2507;50.392;7.482;2023-07-24T05:19:23;99727.44;;;21.94;68.55
4981;BME280;2507;50.392;7.482;2023-07-24T05:21:49;99713.69;;;22.10;64.76
4981;BME280;2507;50.392;7.482;2023-07-24T05:24:14;99715.75;;;22.67;62.07
4981;BME280;2507;50.392;7.482;2023-07-24T05:26:39;99711.72;;;23.66;59.63
4981;BME280;2507;50.392;7.482;2023-07-24T05:29:04;99713.22;;;24.49;58.73
4981;BME280;2507;50.392;7.482;2023-07-24T05:31:30;99721.97;;;24.63;59.83
4981;BME280;2507;50.392;7.482;2023-07-24T05:33:55;99717.44;;;24.88;59.22
4981;BME280;2507;50.392;7.482;2023-07-24T05:36:20;99713.03;;;25.11;58.58
4981;BME280;2507;50.392;7.482;2023-07-24T05:38:45;99704.09;;;24.99;58.69
4981;BME280;2507;50.392;7.482;2023-07-24T05:41:11;99697.91;;;24.99;57.89
4981;BME280;2507;50.392;7.482;2023-07-24T05:43:36;99704.31;;;24.80;56.37
4981;BME280;2507;50.392;7.482;2023-07-24T05:46:01;99698.41;;;25.07;55.44
4981;BME280;2507;50.392;7.482;2023-07-24T05:48:26;99686.75;;;25.32;54.99
4981;BME280;2507;50.392;7.482;2023-07-24T05:50:52;99678.50;;;25.63;52.11
4981;BME280;2507;50.392;7.482;2023-07-24T05:53:17;99686.63;;;25.45;52.67
4981;BME280;2507;50.392;7.482;2023-07-24T05:55:43;99686.44;;;25.58;50.77
4981;BME280;2507;50.392;7.482;2023-07-24T05:58:09;99690.38;;;25.44;51.50
4981;BME280;2507;50.392;7.482;2023-07-24T06:00:34;99688.63;;;24.77;54.06
4981;BME280;2507;50.392;7.482;2023-07-24T06:03:01;99688.22;;;24.31;54.24
4981;BME280;2507;50.392;7.482;2023-07-24T06:05:27;99686.13;;;24.08;56.93
4981;BME280;2507;50.392;7.482;2023-07-24T06:07:52;99693.22;;;23.96;58.34
4981;BME280;2507;50.392;7.482;2023-07-24T06:10:18;99693.81;;;23.98;57.08
4981;BME280;2507;50.392;7.482;2023-07-24T06:12:43;99698.25;;;23.79;59.26
4981;BME280;2507;50.392;7.482;2023-07-24T06:15:09;99702.44;;;24.06;57.09
4981;BME280;2507;50.392;7.482;2023-07-24T06:17:34;99702.66;;;24.29;56.03
4981;BME280;2507;50.392;7.482;2023-07-24T06:19:59;99703.34;;;24.25;54.86
4981;BME280;2507;50.392;7.482;2023-07-24T06:22:25;99695.13;;;24.45;54.39
4981;BME280;2507;50.392;7.482;2023-07-24T06:24:50;99685.13;;;24.52;53.55
4981;BME280;2507;50.392;7.482;2023-07-24T06:27:16;99681.63;;;24.94;52.80
4981;BME280;2507;50.392;7.482;2023-07-24T06:29:41;99680.53;;;25.38;51.82
4981;BME280;2507;50.392;7.482;2023-07-24T06:32:07;99686.75;;;25.50;50.33
4981;BME280;2507;50.392;7.482;2023-07-24T06:34:32;99688.34;;;25.21;51.28
4981;BME280;2507;50.392;7.482;2023-07-24T06:36:58;99684.78;;;24.91;52.74
4981;BME280;2507;50.392;7.482;2023-07-24T06:39:23;99688.72;;;25.06;53.05
4981;BME280;2507;50.392;7.482;2023-07-24T06:41:48;99689.94;;;24.92;54.32
4981;BME280;2507;50.392;7.482;2023-07-24T06:44:14;99680.53;;;25.01;54.00
4981;BME280;2507;50.392;7.482;2023-07-24T06:46:39;99687.50;;;25.20;53.69
4981;BME280;2507;50.392;7.482;2023-07-24T06:49:04;99690.94;;;25.46;52.49
4981;BME280;2507;50.392;7.482;2023-07-24T06:51:30;99686.38;;;25.28;51.57
4981;BME280;2507;50.392;7.482;2023-07-24T06:53:55;99690.72;;;25.29;50.81
4981;BME280;2507;50.392;7.482;2023-07-24T06:56:20;99689.19;;;25.03;51.31
4981;BME280;2507;50.392;7.482;2023-07-24T06:58:45;99680.06;;;24.86;52.27
4981;BME280;2507;50.392;7.482;2023-07-24T07:01:11;99677.47;;;24.80;52.24
4981;BME280;2507;50.392;7.482;2023-07-24T07:03:36;99681.44;;;24.53;52.76
4981;BME280;2507;50.392;7.482;2023-07-24T07:06:01;99681.63;;;24.51;52.71
4981;BME280;2507;50.392;7.482;2023-07-24T07:08:28;99686.56;;;24.54;52.74
4981;BME280;2507;50.392;7.482;2023-07-24T07:10:57;99680.28;;;24.60;52.89
4981;BME280;2507;50.392;7.482;2023-07-24T07:13:22;99685.47;;;24.62;52.73
4981;BME280;2507;50.392;7.482;2023-07-24T07:15:48;99678.53;;;24.54;52.72
4981;BME280;2507;50.392;7.482;2023-07-24T07:18:13;99671.78;;;24.45;52.47
4981;BME280;2507;50.392;7.482;2023-07-24T07:20:38;99672.94;;;24.31;53.15
4981;BME280;2507;50.392;7.482;2023-07-24T07:23:04;99674.03;;;24.48;52.73
4981;BME280;2507;50.392;7.482;2023-07-24T07:25:29;99669.13;;;24.63;52.16
4981;BME280;2507;50.392;7.482;2023-07-24T07:27:54;99665.69;;;24.56;52.36
4981;BME280;2507;50.392;7.482;2023-07-24T07:30:19;99659.63;;;24.43;52.66
4981;BME280;2507;50.392;7.482;2023-07-24T07:32:45;99656.41;;;24.34;53.21
4981;BME280;2507;50.392;7.482;2023-07-24T07:35:10;99663.75;;;24.45;53.02
4981;BME280;2507;50.392;7.482;2023-07-24T07:37:36;99662.72;;;24.64;52.20
4981;BME280;2507;50.392;7.482;2023-07-24T07:40:01;99654.25;;;24.67;52.36
4981;BME280;2507;50.392;7.482;2023-07-24T07:42:26;99654.97;;;24.56;52.89
4981;BME280;2507;50.392;7.482;2023-07-24T07:44:52;99652.91;;;24.34;53.42
4981;BME280;2507;50.392;7.482;2023-07-24T07:47:17;99660.25;;;24.20;54.75
4981;BME280;2507;50.392;7.482;2023-07-24T07:49:42;99674.63;;;24.25;55.13
4981;BME280;2507;50.392;7.482;2023-07-24T07:52:07;99668.91;;;23.91;56.74
4981;BME280;2507;50.392;7.482;2023-07-24T07:54:33;99653.16;;;23.76;57.03
4981;BME280;2507;50.392;7.482;2023-07-24T07:56:58;99653.16;;;23.76;57.57
4981;BME280;2507;50.392;7.482;2023-07-24T07:59:23;99663.03;;;23.76;57.43
4981;BME280;2507;50.392;7.482;2023-07-24T08:01:49;99672.91;;;23.75;57.21
4981;BME280;2507;50.392;7.482;2023-07-24T08:04:14;99658.78;;;23.93;57.04
4981;BME280;2507;50.392;7.482;2023-07-24T08:06:39;99659.69;;;24.11;57.14
4981;BME280;2507;50.392;7.482;2023-07-24T08:09:04;99661.31;;;24.37;55.77
4981;BME280;2507;50.392;7.482;2023-07-24T08:11:30;99663.53;;;24.47;56.16
4981;BME280;2507;50.392;7.482;2023-07-24T08:13:55;99665.16;;;24.72;55.36
4981;BME280;2507;50.392;7.482;2023-07-24T08:16:20;99658.06;;;24.96;55.05
4981;BME280;2507;50.392;7.482;2023-07-24T08:18:46;99651.34;;;25.23;53.97
4981;BME280;2507;50.392;7.482;2023-07-24T08:21:12;99652.88;;;25.49;53.17
4981;BME280;2507;50.392;7.482;2023-07-24T08:23:39;99647.69;;;25.77;52.69
4981;BME280;2507;50.392;7.482;2023-07-24T08:26:04;99652.94;;;26.13;51.57
4981;BME280;2507;50.392;7.482;2023-07-24T08:28:29;99651.78;;;26.09;50.75
4981;BME280;2507;50.392;7.482;2023-07-24T08:30:58;99652.03;;;26.19;50.92
4981;BME280;2507;50.392;7.482;2023-07-24T08:33:24;99641.97;;;26.38;50.56
4981;BME280;2507;50.392;7.482;2023-07-24T08:36:07;99651.44;;;26.75;49.91
4981;BME280;2507;50.392;7.482;2023-07-24T08:38:33;99644.53;;;26.79;49.16
4981;BME280;2507;50.392;7.482;2023-07-24T08:41:03;99644.19;;;26.75;48.62
4981;BME280;2507;50.392;7.482;2023-07-24T08:43:29;99650.66;;;26.74;48.62
4981;BME280;2507;50.392;7.482;2023-07-24T08:45:58;99651.66;;;26.96;48.24
4981;BME280;2507;50.392;7.482;2023-07-24T08:48:26;99645.72;;;26.71;48.09
4981;BME280;2507;50.392;7.482;2023-07-24T08:50:54;99643.00;;;26.83;48.47
4981;BME280;2507;50.392;7.482;2023-07-24T08:53:20;99644.41;;;27.37;47.62
4981;BME280;2507;50.392;7.482;2023-07-24T08:55:48;99640.06;;;27.36;47.33
4981;BME280;2507;50.392;7.482;2023-07-24T08:58:14;99638.06;;;27.43;46.99
4981;BME280;2507;50.392;7.482;2023-07-24T09:00:39;99639.09;;;27.70;46.32
4981;BME280;2507;50.392;7.482;2023-07-24T09:03:05;99629.34;;;27.97;45.68
4981;BME280;2507;50.392;7.482;2023-07-24T09:05:30;99627.34;;;28.42;44.51
4981;BME280;2507;50.392;7.482;2023-07-24T09:07:56;99636.44;;;28.91;43.40
4981;BME280;2507;50.392;7.482;2023-07-24T09:10:27;99622.94;;;29.12;43.04
4981;BME280;2507;50.392;7.482;2023-07-24T09:12:54;99610.31;;;30.03;41.88
4981;BME280;2507;50.392;7.482;2023-07-24T09:15:20;99587.81;;;29.97;40.76
4981;BME280;2507;50.392;7.482;2023-07-24T09:20:14;99582.00;;;29.84;41.36
4981;BME280;2507;50.392;7.482;2023-07-24T09:22:50;99587.03;;;30.39;40.17
4981;BME280;2507;50.392;7.482;2023-07-24T09:25:16;99582.63;;;30.74;40.62
4981;BME280;2507;50.392;7.482;2023-07-24T09:27:41;99579.31;;;31.29;38.83
4981;BME280;2507;50.392;7.482;2023-07-24T09:30:15;99563.38;;;31.78;37.46
4981;BME280;2507;50.392;7.482;2023-07-24T09:32:42;99567.63;;;31.29;37.33
4981;BME280;2507;50.392;7.482;2023-07-24T09:35:17;99560.84;;;30.49;38.43
4981;BME280;2507;50.392;7.482;2023-07-24T09:37:44;99553.38;;;30.30;38.83
4981;BME280;2507;50.392;7.482;2023-07-24T09:40:10;99552.84;;;30.28;38.53
4981;BME280;2507;50.392;7.482;2023-07-24T09:42:36;99557.47;;;30.27;39.14
4981;BME280;2507;50.392;7.482;2023-07-24T09:45:03;99556.75;;;30.10;39.37
4981;BME280;2507;50.392;7.482;2023-07-24T09:47:28;99542.94;;;30.06;39.27
4981;BME280;2507;50.392;7.482;2023-07-24T09:49:54;99532.81;;;29.92;38.53
4981;BME280;2507;50.392;7.482;2023-07-24T09:52:20;99539.56;;;29.58;39.16
4981;BME280;2507;50.392;7.482;2023-07-24T09:57:17;99541.72;;;29.56;38.92
4981;BME280;2507;50.392;7.482;2023-07-24T09:59:43;99533.25;;;29.47;38.48
4981;BME280;2507;50.392;7.482;2023-07-24T10:02:11;99521.50;;;29.37;38.24
4981;BME280;2507;50.392;7.482;2023-07-24T10:04:37;99518.88;;;29.15;38.24
4981;BME280;2507;50.392;7.482;2023-07-24T10:07:06;99517.09;;;29.04;38.76
4981;BME280;2507;50.392;7.482;2023-07-24T10:09:32;99521.59;;;28.93;39.30
4981;BME280;2507;50.392;7.482;2023-07-24T10:11:58;99518.97;;;28.77;38.60
4981;BME280;2507;50.392;7.482;2023-07-24T10:14:24;99520.16;;;28.86;38.97
4981;BME280;2507;50.392;7.482;2023-07-24T10:16:50;99517.88;;;29.21;38.61
4981;BME280;2507;50.392;7.482;2023-07-24T10:19:20;99522.41;;;29.15;37.55
4981;BME280;2507;50.392;7.482;2023-07-24T10:21:50;99529.09;;;29.35;37.91
4981;BME280;2507;50.392;7.482;2023-07-24T10:24:16;99513.66;;;29.35;37.72
4981;BME280;2507;50.392;7.482;2023-07-24T10:26:42;99519.97;;;29.46;37.21
4981;BME280;2507;50.392;7.482;2023-07-24T10:29:09;99517.06;;;29.52;37.22
4981;BME280;2507;50.392;7.482;2023-07-24T10:31:34;99518.41;;;29.81;36.42
4981;BME280;2507;50.392;7.482;2023-07-24T10:34:06;99529.09;;;30.03;36.25
4981;BME280;2507;50.392;7.482;2023-07-24T10:36:36;99531.06;;;30.12;34.99
4981;BME280;2507;50.392;7.482;2023-07-24T10:39:02;99539.19;;;30.12;35.17
4981;BME280;2507;50.392;7.482;2023-07-24T10:41:35;99537.91;;;30.20;35.20
4981;BME280;2507;50.392;7.482;2023-07-24T10:44:00;99514.66;;;29.87;35.35
4981;BME280;2507;50.392;7.482;2023-07-24T10:46:35;99516.88;;;29.64;36.16
4981;BME280;2507;50.392;7.482;2023-07-24T10:49:02;99506.41;;;29.41;36.07
4981;BME280;2507;50.392;7.482;2023-07-24T10:51:29;99507.25;;;29.41;36.15
4981;BME280;2507;50.392;7.482;2023-07-24T10:53:55;99510.50;;;29.75;35.39
4981;BME280;2507;50.392;7.482;2023-07-24T10:56:20;99515.28;;;29.68;35.70
4981;BME280;2507;50.392;7.482;2023-07-24T10:58:46;99516.91;;;30.00;35.69
4981;BME280;2507;50.392;7.482;2023-07-24T11:01:11;99521.69;;;29.57;35.06
4981;BME280;2507;50.392;7.482;2023-07-24T11:03:37;99514.25;;;29.69;34.74
4981;BME280;2507;50.392;7.482;2023-07-24T11:06:03;99517.91;;;29.53;35.27
4981;BME280;2507;50.392;7.482;2023-07-24T11:08:29;99508.44;;;29.55;35.40
4981;BME280;2507;50.392;7.482;2023-07-24T11:10:56;99518.94;;;29.52;35.52
4981;BME280;2507;50.392;7.482;2023-07-24T11:13:24;99520.78;;;29.73;34.97
4981;BME280;2507;50.392;7.482;2023-07-24T11:15:49;99518.59;;;29.70;35.16
4981;BME280;2507;50.392;7.482;2023-07-24T11:18:15;99519.41;;;29.70;35.52
4981;BME280;2507;50.392;7.482;2023-07-24T11:20:46;99514.28;;;29.74;35.32
4981;BME280;2507;50.392;7.482;2023-07-24T11:23:12;99513.63;;;29.98;34.51
4981;BME280;2507;50.392;7.482;2023-07-24T11:25:37;99506.59;;;30.39;34.44
4981;BME280;2507;50.392;7.482;2023-07-24T11:28:07;99500.28;;;30.24;34.50
4981;BME280;2507;50.392;7.482;2023-07-24T11:30:33;99492.47;;;29.85;35.19
4981;BME280;2507;50.392;7.482;2023-07-24T11:33:00;99488.97;;;29.90;35.06
4981;BME280;2507;50.392;7.482;2023-07-24T11:35:27;99477.56;;;29.83;35.62
4981;BME280;2507;50.392;7.482;2023-07-24T11:37:52;99467.72;;;30.13;35.36
4981;BME280;2507;50.392;7.482;2023-07-24T11:40:18;99457.06;;;30.49;35.00
4981;BME280;2507;50.392;7.482;2023-07-24T11:42:46;99447.19;;;30.94;34.35
4981;BME280;2507;50.392;7.482;2023-07-24T11:45:12;99445.91;;;30.40;35.29
4981;BME280;2507;50.392;7.482;2023-07-24T11:47:45;99447.41;;;30.11;35.89
4981;BME280;2507;50.392;7.482;2023-07-24T11:50:11;99444.06;;;29.99;36.21
4981;BME280;2507;50.392;7.482;2023-07-24T11:52:44;99432.13;;;29.95;36.21
4981;BME280;2507;50.392;7.482;2023-07-24T11:55:15;99436.06;;;30.19;36.09
4981;BME280;2507;50.392;7.482;2023-07-24T11:57:40;99427.19;;;30.29;35.80
4981;BME280;2507;50.392;7.482;2023-07-24T12:00:18;99421.84;;;29.87;36.74
4981;BME280;2507;50.392;7.482;2023-07-24T12:02:44;99417.16;;;29.72;36.95
4981;BME280;2507;50.392;7.482;2023-07-24T12:05:10;99432.72;;;29.60;37.10
4981;BME280;2507;50.392;7.482;2023-07-24T12:07:36;99435.06;;;29.47;40.80
4981;BME280;2507;50.392;7.482;2023-07-24T12:10:03;99439.94;;;28.86;43.91
4981;BME280;2507;50.392;7.482;2023-07-24T12:12:40;99441.09;;;28.04;46.26
4981;BME280;2507;50.392;7.482;2023-07-24T12:15:06;99447.06;;;27.35;49.55
4981;BME280;2507;50.392;7.482;2023-07-24T12:17:31;99443.72;;;26.83;50.32
4981;BME280;2507;50.392;7.482;2023-07-24T12:19:56;99431.63;;;26.57;51.72
4981;BME280;2507;50.392;7.482;2023-07-24T12:22:22;99436.03;;;26.35;52.67
4981;BME280;2507;50.392;7.482;2023-07-24T12:24:47;99463.94;;;25.94;53.82
4981;BME280;2507;50.392;7.482;2023-07-24T12:27:12;99470.72;;;25.74;55.63
4981;BME280;2507;50.392;7.482;2023-07-24T12:29:38;99489.25;;;25.29;58.27
4981;BME280;2507;50.392;7.482;2023-07-24T12:32:03;99502.88;;;24.68;61.78
4981;BME280;2507;50.392;7.482;2023-07-24T12:34:29;99490.84;;;24.23;64.46
4981;BME280;2507;50.392;7.482;2023-07-24T12:36:54;99492.19;;;23.89;67.76
4981;BME280;2507;50.392;7.482;2023-07-24T12:39:19;99484.59;;;24.29;68.49
4981;BME280;2507;50.392;7.482;2023-07-24T12:41:45;99476.03;;;24.68;65.41
4981;BME280;2507;50.392;7.482;2023-07-24T12:44:10;99471.34;;;24.82;65.94
4981;BME280;2507;50.392;7.482;2023-07-24T12:46:35;99472.56;;;24.97;67.24
4981;BME280;2507;50.392;7.482;2023-07-24T12:49:01;99471.78;;;25.08;65.21
4981;BME280;2507;50.392;7.482;2023-07-24T12:51:26;99469.34;;;25.18;65.53
4981;BME280;2507;50.392;7.482;2023-07-24T12:53:51;99470.88;;;25.26;65.45
4981;BME280;2507;50.392;7.482;2023-07-24T12:56:17;99465.56;;;25.08;61.83
4981;BME280;2507;50.392;7.482;2023-07-24T12:58:42;99461.75;;;25.15;64.66
4981;BME280;2507;50.392;7.482;2023-07-24T13:01:09;99477.03;;;25.56;62.98
4981;BME280;2507;50.392;7.482;2023-07-24T13:03:34;99469.41;;;25.88;62.16
4981;BME280;2507;50.392;7.482;2023-07-24T13:05:59;99465.94;;;26.10;59.75
4981;BME280;2507;50.392;7.482;2023-07-24T13:08:25;99470.00;;;26.24;58.51
4981;BME280;2507;50.392;7.482;2023-07-24T13:11:03;99462.00;;;26.81;56.86
4981;BME280;2507;50.392;7.482;2023-07-24T13:13:28;99458.59;;;26.85;54.55
4981;BME280;2507;50.392;7.482;2023-07-24T13:15:54;99459.44;;;26.74;54.55
4981;BME280;2507;50.392;7.482;2023-07-24T13:18:19;99449.81;;;26.78;55.09
4981;BME280;2507;50.392;7.482;2023-07-24T13:20:45;99450.88;;;26.77;54.96